sensor_id;sensor_type;location;lat;lon;timestamp;temperature;humidity
55008;DHT22;40902;45.116;21.296;2023-04-03T00:01:28;307.30;2304.00
55008;DHT22;40902;45.116;21.296;2023-04-03T00:03:55;307.30;2304.00
55008;DHT22;40902;45.116;21.296;2023-04-03T00:06:21;307.30;2304.00
55008;DHT22;40902;45.116;21.296;2023-04-03T00:08:47;307.30;2304.00
55008;DHT22;40902;45.116;21.296;2023-04-03T00:11:13;307.30;2304.00
55008;DHT22;40902;45.116;21.296;2023-04-03T00:13:39;307.30;2304.00
55008;DHT22;40902;45.116;21.296;2023-04-03T00:16:06;307.30;2304.00
55008;DHT22;40902;45.116;21.296;2023-04-03T00:18:32;307.30;2304.00
55008;DHT22;40902;45.116;21.296;2023-04-03T00:20:58;307.30;2304.00
55008;DHT22;40902;45.116;21.296;2023-04-03T00:23:24;282.50;2278.40
55008;DHT22;40902;45.116;21.296;2023-04-03T00:25:50;282.50;2278.40
55008;DHT22;40902;45.116;21.296;2023-04-03T00:28:16;307.20;2304.00
55008;DHT22;40902;45.116;21.296;2023-04-03T00:30:42;282.30;2278.40
55008;DHT22;40902;45.116;21.296;2023-04-03T00:33:12;282.30;2278.40
55008;DHT22;40902;45.116;21.296;2023-04-03T00:35:38;282.30;2278.40
55008;DHT22;40902;45.116;21.296;2023-04-03T00:38:04;282.30;2278.40
55008;DHT22;40902;45.116;21.296;2023-04-03T00:40:37;282.20;2278.40
55008;DHT22;40902;45.116;21.296;2023-04-03T00:43:15;282.30;2278.40
55008;DHT22;40902;45.116;21.296;2023-04-03T00:45:43;282.10;2278.40
55008;DHT22;40902;45.116;21.296;2023-04-03T00:48:13;282.00;2278.40
55008;DHT22;40902;45.116;21.296;2023-04-03T00:50:41;281.90;2278.40
55008;DHT22;40902;45.116;21.296;2023-04-03T00:53:11;281.80;2278.40
55008;DHT22;40902;45.116;21.296;2023-04-03T00:55:38;281.80;2278.40
55008;DHT22;40902;45.116;21.296;2023-04-03T00:58:05;281.90;2278.40
55008;DHT22;40902;45.116;21.296;2023-04-03T01:00:32;281.90;2278.40
55008;DHT22;40902;45.116;21.296;2023-04-03T01:02:58;281.90;2278.40
55008;DHT22;40902;45.116;21.296;2023-04-03T01:05:25;281.90;2278.40
55008;DHT22;40902;45.116;21.296;2023-04-03T01:07:51;282.00;2278.40
55008;DHT22;40902;45.116;21.296;2023-04-03T01:10:18;281.90;2278.40
55008;DHT22;40902;45.116;21.296;2023-04-03T01:12:47;282.00;2278.40
55008;DHT22;40902;45.116;21.296;2023-04-03T01:15:20;282.00;2278.40
55008;DHT22;40902;45.116;21.296;2023-04-03T01:17:56;282.00;2278.40
55008;DHT22;40902;45.116;21.296;2023-04-03T01:23:18;282.00;2278.40
55008;DHT22;40902;45.116;21.296;2023-04-03T01:25:50;282.00;2278.40
55008;DHT22;40902;45.116;21.296;2023-04-03T01:28:25;282.00;2278.40
55008;DHT22;40902;45.116;21.296;2023-04-03T01:31:03;282.10;2278.40
55008;DHT22;40902;45.116;21.296;2023-04-03T01:33:31;282.00;2278.40
55008;DHT22;40902;45.116;21.296;2023-04-03T01:35:56;282.10;2278.40
55008;DHT22;40902;45.116;21.296;2023-04-03T01:38:22;282.10;2278.40
55008;DHT22;40902;45.116;21.296;2023-04-03T01:40:48;282.10;2278.40
55008;DHT22;40902;45.116;21.296;2023-04-03T01:43:14;282.20;2278.40
55008;DHT22;40902;45.116;21.296;2023-04-03T01:45:39;282.20;2278.40
55008;DHT22;40902;45.116;21.296;2023-04-03T01:48:05;282.20;2278.40
55008;DHT22;40902;45.116;21.296;2023-04-03T01:50:31;282.20;2278.40
55008;DHT22;40902;45.116;21.296;2023-04-03T01:52:57;282.30;2278.40
55008;DHT22;40902;45.116;21.296;2023-04-03T01:55:23;282.30;2278.40
55008;DHT22;40902;45.116;21.296;2023-04-03T01:57:49;282.20;2278.40
55008;DHT22;40902;45.116;21.296;2023-04-03T02:00:15;282.20;2278.40
55008;DHT22;40902;45.116;21.296;2023-04-03T02:02:40;282.20;2278.40
55008;DHT22;40902;45.116;21.296;2023-04-03T02:05:07;282.20;2278.40
55008;DHT22;40902;45.116;21.296;2023-04-03T02:07:32;282.30;2278.40
55008;DHT22;40902;45.116;21.296;2023-04-03T02:09:58;282.30;2278.40
55008;DHT22;40902;45.116;21.296;2023-04-03T02:12:24;282.30;2278.40
55008;DHT22;40902;45.116;21.296;2023-04-03T02:14:49;282.30;2278.40
55008;DHT22;40902;45.116;21.296;2023-04-03T02:17:15;282.30;2278.40
55008;DHT22;40902;45.116;21.296;2023-04-03T02:19:41;282.40;2278.40
55008;DHT22;40902;45.116;21.296;2023-04-03T02:22:07;282.40;2278.40
55008;DHT22;40902;45.116;21.296;2023-04-03T02:24:32;282.40;2278.40
55008;DHT22;40902;45.116;21.296;2023-04-03T02:26:58;282.30;2278.40
55008;DHT22;40902;45.116;21.296;2023-04-03T02:29:24;282.40;2278.40
55008;DHT22;40902;45.116;21.296;2023-04-03T02:31:50;282.30;2278.40
55008;DHT22;40902;45.116;21.296;2023-04-03T02:34:17;282.30;2278.40
55008;DHT22;40902;45.116;21.296;2023-04-03T02:36:42;282.30;2278.40
55008;DHT22;40902;45.116;21.296;2023-04-03T02:39:08;282.20;2278.40
55008;DHT22;40902;45.116;21.296;2023-04-03T02:41:34;282.20;2278.40
55008;DHT22;40902;45.116;21.296;2023-04-03T02:44:05;282.20;2278.40
55008;DHT22;40902;45.116;21.296;2023-04-03T02:46:32;282.20;2278.40
55008;DHT22;40902;45.116;21.296;2023-04-03T02:48:58;282.20;2278.40
55008;DHT22;40902;45.116;21.296;2023-04-03T02:51:24;282.10;2278.40
55008;DHT22;40902;45.116;21.296;2023-04-03T02:53:50;282.10;2278.40
55008;DHT22;40902;45.116;21.296;2023-04-03T02:56:16;282.10;2278.40
55008;DHT22;40902;45.116;21.296;2023-04-03T02:58:42;282.10;2278.40
55008;DHT22;40902;45.116;21.296;2023-04-03T03:01:08;282.00;2278.40
55008;DHT22;40902;45.116;21.296;2023-04-03T03:03:34;282.00;2278.40
55008;DHT22;40902;45.116;21.296;2023-04-03T03:06:11;281.90;2278.40
55008;DHT22;40902;45.116;21.296;2023-04-03T03:08:37;281.90;2278.40
55008;DHT22;40902;45.116;21.296;2023-04-03T03:11:04;281.80;2278.40
55008;DHT22;40902;45.116;21.296;2023-04-03T03:13:30;281.80;2278.40
55008;DHT22;40902;45.116;21.296;2023-04-03T03:15:56;281.80;2278.40
55008;DHT22;40902;45.116;21.296;2023-04-03T03:18:22;281.90;2278.40
55008;DHT22;40902;45.116;21.296;2023-04-03T03:21:06;281.80;2278.40
55008;DHT22;40902;45.116;21.296;2023-04-03T03:23:32;281.80;2278.40
55008;DHT22;40902;45.116;21.296;2023-04-03T03:26:00;281.80;2278.40
55008;DHT22;40902;45.116;21.296;2023-04-03T03:28:26;281.70;2278.40
55008;DHT22;40902;45.116;21.296;2023-04-03T03:30:52;256.90;2252.80
55008;DHT22;40902;45.116;21.296;2023-04-03T03:33:18;256.90;2252.80
55008;DHT22;40902;45.116;21.296;2023-04-03T03:35:44;256.90;2252.80
55008;DHT22;40902;45.116;21.296;2023-04-03T03:38:10;256.80;2252.80
55008;DHT22;40902;45.116;21.296;2023-04-03T03:40:36;256.70;2252.80
55008;DHT22;40902;45.116;21.296;2023-04-03T03:43:02;256.80;2252.80
55008;DHT22;40902;45.116;21.296;2023-04-03T03:45:28;256.80;2252.80
55008;DHT22;40902;45.116;21.296;2023-04-03T03:47:54;256.90;2252.80
55008;DHT22;40902;45.116;21.296;2023-04-03T03:50:20;256.90;2252.80
55008;DHT22;40902;45.116;21.296;2023-04-03T03:52:46;256.90;2252.80
55008;DHT22;40902;45.116;21.296;2023-04-03T03:55:11;256.80;2252.80
55008;DHT22;40902;45.116;21.296;2023-04-03T03:57:37;256.80;2252.80
55008;DHT22;40902;45.116;21.296;2023-04-03T04:00:03;256.80;2252.80
55008;DHT22;40902;45.116;21.296;2023-04-03T04:02:29;256.70;2252.80
55008;DHT22;40902;45.116;21.296;2023-04-03T04:04:55;256.70;2252.80
55008;DHT22;40902;45.116;21.296;2023-04-03T04:07:21;256.60;2252.80
55008;DHT22;40902;45.116;21.296;2023-04-03T04:09:47;256.60;2252.80
55008;DHT22;40902;45.116;21.296;2023-04-03T04:12:13;256.50;2252.80
55008;DHT22;40902;45.116;21.296;2023-04-03T04:14:39;256.40;2252.80
55008;DHT22;40902;45.116;21.296;2023-04-03T04:17:05;256.30;2252.80
55008;DHT22;40902;45.116;21.296;2023-04-03T04:19:31;256.30;2252.80
55008;DHT22;40902;45.116;21.296;2023-04-03T04:21:58;256.20;2252.80
55008;DHT22;40902;45.116;21.296;2023-04-03T04:24:24;256.10;2252.80
55008;DHT22;40902;45.116;21.296;2023-04-03T04:26:49;256.10;2252.80
55008;DHT22;40902;45.116;21.296;2023-04-03T04:29:15;256.10;2252.80
55008;DHT22;40902;45.116;21.296;2023-04-03T04:31:41;256.30;2252.80
55008;DHT22;40902;45.116;21.296;2023-04-03T04:34:07;256.10;2252.80
55008;DHT22;40902;45.116;21.296;2023-04-03T04:36:33;256.00;2252.80
55008;DHT22;40902;45.116;21.296;2023-04-03T04:38:58;231.30;2252.80
55008;DHT22;40902;45.116;21.296;2023-04-03T04:41:24;231.20;2252.80
55008;DHT22;40902;45.116;21.296;2023-04-03T04:43:50;231.10;2252.80
55008;DHT22;40902;45.116;21.296;2023-04-03T04:46:17;231.10;2252.80
55008;DHT22;40902;45.116;21.296;2023-04-03T04:48:43;231.10;2252.80
55008;DHT22;40902;45.116;21.296;2023-04-03T04:51:09;231.10;2252.80
55008;DHT22;40902;45.116;21.296;2023-04-03T04:53:35;231.10;2252.80
55008;DHT22;40902;45.116;21.296;2023-04-03T04:56:01;231.00;2252.80
55008;DHT22;40902;45.116;21.296;2023-04-03T04:58:27;231.10;2252.80
55008;DHT22;40902;45.116;21.296;2023-04-03T05:01:04;231.20;2252.80
55008;DHT22;40902;45.116;21.296;2023-04-03T05:03:30;231.20;2252.80
55008;DHT22;40902;45.116;21.296;2023-04-03T05:05:55;231.20;2252.80
55008;DHT22;40902;45.116;21.296;2023-04-03T05:08:21;231.10;2252.80
55008;DHT22;40902;45.116;21.296;2023-04-03T05:10:47;231.20;2252.80
55008;DHT22;40902;45.116;21.296;2023-04-03T05:13:13;231.20;2252.80
55008;DHT22;40902;45.116;21.296;2023-04-03T05:15:39;231.10;2252.80
55008;DHT22;40902;45.116;21.296;2023-04-03T05:18:04;231.30;2252.80
55008;DHT22;40902;45.116;21.296;2023-04-03T05:20:31;231.20;2252.80
55008;DHT22;40902;45.116;21.296;2023-04-03T05:22:57;231.20;2252.80
55008;DHT22;40902;45.116;21.296;2023-04-03T05:25:23;231.20;2252.80
55008;DHT22;40902;45.116;21.296;2023-04-03T05:27:49;231.10;2252.80
55008;DHT22;40902;45.116;21.296;2023-04-03T05:30:15;231.20;2252.80
55008;DHT22;40902;45.116;21.296;2023-04-03T05:32:41;231.20;2252.80
55008;DHT22;40902;45.116;21.296;2023-04-03T05:35:08;231.30;2252.80
55008;DHT22;40902;45.116;21.296;2023-04-03T05:37:34;231.30;2252.80
55008;DHT22;40902;45.116;21.296;2023-04-03T05:40:00;231.30;2252.80
55008;DHT22;40902;45.116;21.296;2023-04-03T05:42:26;256.00;2252.80
55008;DHT22;40902;45.116;21.296;2023-04-03T05:44:52;256.10;2252.80
55008;DHT22;40902;45.116;21.296;2023-04-03T05:47:19;256.20;2252.80
55008;DHT22;40902;45.116;21.296;2023-04-03T05:49:45;256.20;2252.80
55008;DHT22;40902;45.116;21.296;2023-04-03T05:52:29;256.20;2252.80
55008;DHT22;40902;45.116;21.296;2023-04-03T05:54:56;256.20;2252.80
55008;DHT22;40902;45.116;21.296;2023-04-03T05:57:22;256.20;2252.80
55008;DHT22;40902;45.116;21.296;2023-04-03T05:59:48;256.20;2252.80
55008;DHT22;40902;45.116;21.296;2023-04-03T06:02:22;256.20;2252.80
55008;DHT22;40902;45.116;21.296;2023-04-03T06:04:48;256.10;2252.80
55008;DHT22;40902;45.116;21.296;2023-04-03T06:07:19;256.10;2252.80
55008;DHT22;40902;45.116;21.296;2023-04-03T06:09:46;256.00;2252.80
55008;DHT22;40902;45.116;21.296;2023-04-03T06:12:12;256.10;2252.80
55008;DHT22;40902;45.116;21.296;2023-04-03T06:14:38;256.10;2252.80
55008;DHT22;40902;45.116;21.296;2023-04-03T06:17:04;256.20;2252.80
55008;DHT22;40902;45.116;21.296;2023-04-03T06:19:30;256.20;2252.80
55008;DHT22;40902;45.116;21.296;2023-04-03T06:21:56;256.10;2252.80
55008;DHT22;40902;45.116;21.296;2023-04-03T06:24:22;256.10;2252.80
55008;DHT22;40902;45.116;21.296;2023-04-03T06:26:51;256.00;2252.80
55008;DHT22;40902;45.116;21.296;2023-04-03T06:29:18;256.10;2252.80
55008;DHT22;40902;45.116;21.296;2023-04-03T06:31:44;256.00;2252.80
55008;DHT22;40902;45.116;21.296;2023-04-03T06:34:11;256.00;2252.80
55008;DHT22;40902;45.116;21.296;2023-04-03T06:36:39;256.00;2252.80
55008;DHT22;40902;45.116;21.296;2023-04-03T06:39:05;231.30;2252.80
55008;DHT22;40902;45.116;21.296;2023-04-03T06:41:31;231.30;2252.80
55008;DHT22;40902;45.116;21.296;2023-04-03T06:43:56;231.20;2252.80
55008;DHT22;40902;45.116;21.296;2023-04-03T06:46:24;231.10;2252.80
55008;DHT22;40902;45.116;21.296;2023-04-03T06:48:51;231.20;2252.80
55008;DHT22;40902;45.116;21.296;2023-04-03T06:51:26;231.10;2252.80
55008;DHT22;40902;45.116;21.296;2023-04-03T06:53:53;231.20;2252.80
55008;DHT22;40902;45.116;21.296;2023-04-03T06:56:20;231.20;2252.80
55008;DHT22;40902;45.116;21.296;2023-04-03T06:58:46;231.20;2252.80
55008;DHT22;40902;45.116;21.296;2023-04-03T07:01:14;231.10;2252.80
55008;DHT22;40902;45.116;21.296;2023-04-03T07:03:40;231.10;2252.80
55008;DHT22;40902;45.116;21.296;2023-04-03T07:06:08;230.90;2252.80
55008;DHT22;40902;45.116;21.296;2023-04-03T07:08:35;231.00;2252.80
55008;DHT22;40902;45.116;21.296;2023-04-03T07:11:00;231.10;2252.80
55008;DHT22;40902;45.116;21.296;2023-04-03T07:13:26;231.00;2252.80
55008;DHT22;40902;45.116;21.296;2023-04-03T07:15:52;231.00;2252.80
55008;DHT22;40902;45.116;21.296;2023-04-03T07:18:18;230.90;2252.80
55008;DHT22;40902;45.116;21.296;2023-04-03T07:20:44;230.90;2252.80
55008;DHT22;40902;45.116;21.296;2023-04-03T07:23:10;230.80;2252.80
55008;DHT22;40902;45.116;21.296;2023-04-03T07:25:36;231.00;2252.80
55008;DHT22;40902;45.116;21.296;2023-04-03T07:28:03;231.00;2252.80
55008;DHT22;40902;45.116;21.296;2023-04-03T07:30:29;231.10;2252.80
55008;DHT22;40902;45.116;21.296;2023-04-03T07:32:55;231.20;2252.80
55008;DHT22;40902;45.116;21.296;2023-04-03T07:35:21;231.20;2252.80
55008;DHT22;40902;45.116;21.296;2023-04-03T07:37:47;231.20;2252.80
55008;DHT22;40902;45.116;21.296;2023-04-03T07:40:12;231.30;2252.80
55008;DHT22;40902;45.116;21.296;2023-04-03T07:42:38;231.30;2252.80
55008;DHT22;40902;45.116;21.296;2023-04-03T07:45:04;231.30;2252.80
55008;DHT22;40902;45.116;21.296;2023-04-03T07:47:30;256.00;2252.80
55008;DHT22;40902;45.116;21.296;2023-04-03T07:49:56;256.00;2252.80
55008;DHT22;40902;45.116;21.296;2023-04-03T07:52:23;256.00;2252.80
55008;DHT22;40902;45.116;21.296;2023-04-03T07:54:49;256.00;2252.80
55008;DHT22;40902;45.116;21.296;2023-04-03T07:57:14;231.30;2252.80
55008;DHT22;40902;45.116;21.296;2023-04-03T07:59:40;256.00;2252.80
55008;DHT22;40902;45.116;21.296;2023-04-03T08:02:11;256.10;2252.80
55008;DHT22;40902;45.116;21.296;2023-04-03T08:04:37;256.00;2252.80
55008;DHT22;40902;45.116;21.296;2023-04-03T08:07:03;231.30;2252.80
55008;DHT22;40902;45.116;21.296;2023-04-03T08:09:29;231.30;2252.80
55008;DHT22;40902;45.116;21.296;2023-04-03T08:11:55;231.20;2252.80
55008;DHT22;40902;45.116;21.296;2023-04-03T08:14:21;231.30;2252.80
55008;DHT22;40902;45.116;21.296;2023-04-03T08:16:47;256.00;2252.80
55008;DHT22;40902;45.116;21.296;2023-04-03T08:19:14;256.00;2252.80
55008;DHT22;40902;45.116;21.296;2023-04-03T08:21:42;256.00;2252.80
55008;DHT22;40902;45.116;21.296;2023-04-03T08:24:08;231.30;2252.80
55008;DHT22;40902;45.116;21.296;2023-04-03T08:26:34;231.30;2252.80
55008;DHT22;40902;45.116;21.296;2023-04-03T08:29:00;231.30;2252.80
55008;DHT22;40902;45.116;21.296;2023-04-03T08:31:26;256.10;2252.80
55008;DHT22;40902;45.116;21.296;2023-04-03T08:33:53;256.10;2252.80
55008;DHT22;40902;45.116;21.296;2023-04-03T08:36:28;256.20;2252.80
55008;DHT22;40902;45.116;21.296;2023-04-03T08:38:55;256.20;2252.80
55008;DHT22;40902;45.116;21.296;2023-04-03T08:44:15;256.30;2252.80
55008;DHT22;40902;45.116;21.296;2023-04-03T08:49:45;256.50;2252.80
55008;DHT22;40902;45.116;21.296;2023-04-03T08:52:20;256.50;2252.80
55008;DHT22;40902;45.116;21.296;2023-04-03T08:54:56;256.60;2252.80
55008;DHT22;40902;45.116;21.296;2023-04-03T08:57:35;256.70;2252.80
55008;DHT22;40902;45.116;21.296;2023-04-03T09:00:14;256.70;2252.80
55008;DHT22;40902;45.116;21.296;2023-04-03T09:02:44;256.70;2252.80
55008;DHT22;40902;45.116;21.296;2023-04-03T09:08:28;256.80;2252.80
55008;DHT22;40902;45.116;21.296;2023-04-03T09:13:30;256.90;2252.80
55008;DHT22;40902;45.116;21.296;2023-04-03T09:16:01;256.80;2252.80
55008;DHT22;40902;45.116;21.296;2023-04-03T09:18:35;256.80;2252.80
55008;DHT22;40902;45.116;21.296;2023-04-03T09:21:17;256.90;2252.80
55008;DHT22;40902;45.116;21.296;2023-04-03T09:23:58;256.90;2252.80
55008;DHT22;40902;45.116;21.296;2023-04-03T09:26:30;256.90;2252.80
55008;DHT22;40902;45.116;21.296;2023-04-03T09:29:01;256.90;2252.80
55008;DHT22;40902;45.116;21.296;2023-04-03T09:31:31;256.90;2252.80
55008;DHT22;40902;45.116;21.296;2023-04-03T09:34:05;256.90;2252.80
55008;DHT22;40902;45.116;21.296;2023-04-03T09:36:45;256.80;2252.80
55008;DHT22;40902;45.116;21.296;2023-04-03T09:39:23;256.80;2252.80
55008;DHT22;40902;45.116;21.296;2023-04-03T09:42:16;256.60;2252.80
55008;DHT22;40902;45.116;21.296;2023-04-03T09:44:56;256.60;2252.80
55008;DHT22;40902;45.116;21.296;2023-04-03T09:52:38;256.80;2252.80
55008;DHT22;40902;45.116;21.296;2023-04-03T09:57:39;256.80;2252.80
55008;DHT22;40902;45.116;21.296;2023-04-03T10:00:18;256.80;2252.80
55008;DHT22;40902;45.116;21.296;2023-04-03T10:02:44;256.90;2252.80
55008;DHT22;40902;45.116;21.296;2023-04-03T10:10:33;281.70;2278.40
55008;DHT22;40902;45.116;21.296;2023-04-03T10:13:24;281.70;2278.40
55008;DHT22;40902;45.116;21.296;2023-04-03T10:16:02;281.80;2278.40
55008;DHT22;40902;45.116;21.296;2023-04-03T10:21:15;282.00;2278.40
55008;DHT22;40902;45.116;21.296;2023-04-03T10:23:47;281.90;2278.40
55008;DHT22;40902;45.116;21.296;2023-04-03T10:31:59;281.80;2278.40
55008;DHT22;40902;45.116;21.296;2023-04-03T10:34:42;281.80;2278.40
55008;DHT22;40902;45.116;21.296;2023-04-03T10:37:29;281.80;2278.40
55008;DHT22;40902;45.116;21.296;2023-04-03T10:43:02;281.70;2278.40
55008;DHT22;40902;45.116;21.296;2023-04-03T10:56:48;256.90;2252.80
55008;DHT22;40902;45.116;21.296;2023-04-03T10:59:38;256.90;2252.80
55008;DHT22;40902;45.116;21.296;2023-04-03T11:02:07;281.60;2278.40
55008;DHT22;40902;45.116;21.296;2023-04-03T11:04:40;281.80;2278.40
55008;DHT22;40902;45.116;21.296;2023-04-03T11:07:17;281.80;2278.40
55008;DHT22;40902;45.116;21.296;2023-04-03T11:09:46;281.70;2278.40
55008;DHT22;40902;45.116;21.296;2023-04-03T11:12:18;281.80;2278.40
55008;DHT22;40902;45.116;21.296;2023-04-03T11:14:47;281.90;2278.40
55008;DHT22;40902;45.116;21.296;2023-04-03T11:17:23;281.80;2278.40
55008;DHT22;40902;45.116;21.296;2023-04-03T11:20:06;281.90;2278.40
55008;DHT22;40902;45.116;21.296;2023-04-03T11:22:41;281.80;2278.40
55008;DHT22;40902;45.116;21.296;2023-04-03T11:25:18;282.00;2278.40
55008;DHT22;40902;45.116;21.296;2023-04-03T11:28:09;282.00;2278.40
55008;DHT22;40902;45.116;21.296;2023-04-03T11:30:56;281.90;2278.40
55008;DHT22;40902;45.116;21.296;2023-04-03T11:33:45;281.90;2278.40
55008;DHT22;40902;45.116;21.296;2023-04-03T11:36:33;282.00;2278.40
55008;DHT22;40902;45.116;21.296;2023-04-03T11:39:07;282.10;2278.40
55008;DHT22;40902;45.116;21.296;2023-04-03T11:41:35;282.20;2278.40
55008;DHT22;40902;45.116;21.296;2023-04-03T11:44:04;282.30;2278.40
55008;DHT22;40902;45.116;21.296;2023-04-03T11:46:51;282.10;2278.40
55008;DHT22;40902;45.116;21.296;2023-04-03T12:27:14;282.50;2278.40
55008;DHT22;40902;45.116;21.296;2023-04-03T12:43:07;307.30;2304.00
55008;DHT22;40902;45.116;21.296;2023-04-03T12:45:47;307.40;2304.00
55008;DHT22;40902;45.116;21.296;2023-04-03T12:48:21;307.40;2304.00
55008;DHT22;40902;45.116;21.296;2023-04-03T12:50:49;307.40;2304.00
55008;DHT22;40902;45.116;21.296;2023-04-03T12:53:21;307.40;2304.00
55008;DHT22;40902;45.116;21.296;2023-04-03T12:55:53;307.30;2304.00
55008;DHT22;40902;45.116;21.296;2023-04-03T12:58:27;307.40;2304.00
55008;DHT22;40902;45.116;21.296;2023-04-03T13:01:03;307.40;2304.00
55008;DHT22;40902;45.116;21.296;2023-04-03T13:03:30;307.50;2304.00
55008;DHT22;40902;45.116;21.296;2023-04-03T13:06:01;307.40;2304.00
55008;DHT22;40902;45.116;21.296;2023-04-03T13:08:27;307.50;2304.00
55008;DHT22;40902;45.116;21.296;2023-04-03T13:11:06;307.40;2304.00
55008;DHT22;40902;45.116;21.296;2023-04-03T13:13:34;307.50;2304.00
55008;DHT22;40902;45.116;21.296;2023-04-03T13:16:08;307.40;2304.00
55008;DHT22;40902;45.116;21.296;2023-04-03T13:18:37;307.40;2304.00
55008;DHT22;40902;45.116;21.296;2023-04-03T13:21:06;307.40;2304.00
55008;DHT22;40902;45.116;21.296;2023-04-03T13:23:36;307.40;2304.00
55008;DHT22;40902;45.116;21.296;2023-04-03T13:26:03;307.40;2304.00
55008;DHT22;40902;45.116;21.296;2023-04-03T13:28:31;307.40;2304.00
55008;DHT22;40902;45.116;21.296;2023-04-03T13:31:08;307.50;2304.00
55008;DHT22;40902;45.116;21.296;2023-04-03T13:33:36;307.50;2304.00
55008;DHT22;40902;45.116;21.296;2023-04-03T13:36:17;307.50;2304.00
55008;DHT22;40902;45.116;21.296;2023-04-03T13:38:44;307.60;2304.00
55008;DHT22;40902;45.116;21.296;2023-04-03T13:41:37;307.50;2304.00
55008;DHT22;40902;45.116;21.296;2023-04-03T13:52:26;307.40;2304.00
55008;DHT22;40902;45.116;21.296;2023-04-03T13:54:59;307.40;2304.00
55008;DHT22;40902;45.116;21.296;2023-04-03T13:57:25;307.40;2304.00
55008;DHT22;40902;45.116;21.296;2023-04-03T13:59:51;307.40;2304.00
55008;DHT22;40902;45.116;21.296;2023-04-03T14:02:28;307.40;2304.00
55008;DHT22;40902;45.116;21.296;2023-04-03T14:04:58;307.50;2304.00
55008;DHT22;40902;45.116;21.296;2023-04-03T14:07:28;307.50;2304.00
55008;DHT22;40902;45.116;21.296;2023-04-03T14:09:55;307.50;2304.00
55008;DHT22;40902;45.116;21.296;2023-04-03T14:14:52;307.50;2304.00
55008;DHT22;40902;45.116;21.296;2023-04-03T14:17:21;307.50;2304.00
55008;DHT22;40902;45.116;21.296;2023-04-03T14:19:49;307.50;2304.00
55008;DHT22;40902;45.116;21.296;2023-04-03T14:24:42;307.50;2304.00
55008;DHT22;40902;45.116;21.296;2023-04-03T14:27:24;307.50;2304.00
55008;DHT22;40902;45.116;21.296;2023-04-03T14:29:51;307.40;2304.00
55008;DHT22;40902;45.116;21.296;2023-04-03T14:32:20;307.40;2304.00
55008;DHT22;40902;45.116;21.296;2023-04-03T14:34:47;307.50;2304.00
55008;DHT22;40902;45.116;21.296;2023-04-03T14:37:16;307.50;2304.00
55008;DHT22;40902;45.116;21.296;2023-04-03T14:39:42;307.60;2304.00
55008;DHT22;40902;45.116;21.296;2023-04-03T14:42:19;307.60;2304.00
55008;DHT22;40902;45.116;21.296;2023-04-03T14:44:45;307.70;2304.00
55008;DHT22;40902;45.116;21.296;2023-04-03T14:47:16;307.80;2304.00
55008;DHT22;40902;45.116;21.296;2023-04-03T14:49:42;307.80;2304.00
55008;DHT22;40902;45.116;21.296;2023-04-03T14:52:30;307.80;2304.00
55008;DHT22;40902;45.116;21.296;2023-04-03T14:54:56;307.90;2304.00
55008;DHT22;40902;45.116;21.296;2023-04-03T14:57:24;332.90;2329.60
55008;DHT22;40902;45.116;21.296;2023-04-03T14:59:50;332.80;2329.60
55008;DHT22;40902;45.116;21.296;2023-04-03T15:02:27;308.10;2304.00
55008;DHT22;40902;45.116;21.296;2023-04-03T15:04:54;308.10;2304.00
55008;DHT22;40902;45.116;21.296;2023-04-03T15:07:20;308.00;2304.00
55008;DHT22;40902;45.116;21.296;2023-04-03T15:09:46;308.00;2304.00
55008;DHT22;40902;45.116;21.296;2023-04-03T15:12:12;308.00;2304.00
55008;DHT22;40902;45.116;21.296;2023-04-03T15:14:38;308.00;2304.00
55008;DHT22;40902;45.116;21.296;2023-04-03T15:17:04;308.00;2304.00
55008;DHT22;40902;45.116;21.296;2023-04-03T15:19:37;307.90;2304.00
55008;DHT22;40902;45.116;21.296;2023-04-03T15:22:03;307.90;2304.00
55008;DHT22;40902;45.116;21.296;2023-04-03T15:24:29;307.90;2304.00
55008;DHT22;40902;45.116;21.296;2023-04-03T15:26:54;307.80;2304.00
55008;DHT22;40902;45.116;21.296;2023-04-03T15:29:20;307.70;2304.00
55008;DHT22;40902;45.116;21.296;2023-04-03T15:31:46;307.70;2304.00
55008;DHT22;40902;45.116;21.296;2023-04-03T15:34:12;307.70;2304.00
55008;DHT22;40902;45.116;21.296;2023-04-03T15:36:38;307.70;2304.00
55008;DHT22;40902;45.116;21.296;2023-04-03T15:39:04;307.70;2304.00
55008;DHT22;40902;45.116;21.296;2023-04-03T15:41:29;307.70;2304.00
55008;DHT22;40902;45.116;21.296;2023-04-03T15:43:55;307.60;2304.00
55008;DHT22;40902;45.116;21.296;2023-04-03T15:46:21;307.50;2304.00
55008;DHT22;40902;45.116;21.296;2023-04-03T15:48:46;307.50;2304.00
55008;DHT22;40902;45.116;21.296;2023-04-03T15:51:12;307.40;2304.00
55008;DHT22;40902;45.116;21.296;2023-04-03T15:53:38;307.40;2304.00
55008;DHT22;40902;45.116;21.296;2023-04-03T15:56:04;307.40;2304.00
55008;DHT22;40902;45.116;21.296;2023-04-03T15:58:31;307.30;2304.00
55008;DHT22;40902;45.116;21.296;2023-04-03T16:00:56;307.30;2304.00
55008;DHT22;40902;45.116;21.296;2023-04-03T16:03:22;307.30;2304.00
55008;DHT22;40902;45.116;21.296;2023-04-03T16:05:50;307.30;2304.00
55008;DHT22;40902;45.116;21.296;2023-04-03T16:08:17;307.20;2304.00
55008;DHT22;40902;45.116;21.296;2023-04-03T16:10:43;307.20;2304.00
55008;DHT22;40902;45.116;21.296;2023-04-03T16:13:11;307.20;2304.00
55008;DHT22;40902;45.116;21.296;2023-04-03T16:15:37;282.50;2278.40
55008;DHT22;40902;45.116;21.296;2023-04-03T16:18:03;282.50;2278.40
55008;DHT22;40902;45.116;21.296;2023-04-03T16:20:30;282.40;2278.40
55008;DHT22;40902;45.116;21.296;2023-04-03T16:22:57;282.40;2278.40
55008;DHT22;40902;45.116;21.296;2023-04-03T16:25:24;282.30;2278.40
55008;DHT22;40902;45.116;21.296;2023-04-03T16:27:50;282.20;2278.40
55008;DHT22;40902;45.116;21.296;2023-04-03T16:30:16;282.20;2278.40
55008;DHT22;40902;45.116;21.296;2023-04-03T16:32:41;282.10;2278.40
55008;DHT22;40902;45.116;21.296;2023-04-03T16:35:08;282.10;2278.40
55008;DHT22;40902;45.116;21.296;2023-04-03T16:37:36;282.00;2278.40
55008;DHT22;40902;45.116;21.296;2023-04-03T16:40:03;282.00;2278.40